sensor_id;sensor_type;location;lat;lon;timestamp;temperature;humidity
28177;DHT22;15461;41.652;9.378;2023-12-14T00:01:45;14.50;99.90
28177;DHT22;15461;41.652;9.378;2023-12-14T00:04:11;14.40;99.90
28177;DHT22;15461;41.652;9.378;2023-12-14T00:06:37;14.50;99.90
28177;DHT22;15461;41.652;9.378;2023-12-14T00:09:03;14.50;99.90
28177;DHT22;15461;41.652;9.378;2023-12-14T00:11:29;14.50;99.90
28177;DHT22;15461;41.652;9.378;2023-12-14T00:13:55;14.50;99.90
28177;DHT22;15461;41.652;9.378;2023-12-14T00:16:21;14.50;99.90
28177;DHT22;15461;41.652;9.378;2023-12-14T00:18:47;14.40;99.90
28177;DHT22;15461;41.652;9.378;2023-12-14T00:21:12;14.50;99.90
28177;DHT22;15461;41.652;9.378;2023-12-14T00:23:38;14.50;99.90
28177;DHT22;15461;41.652;9.378;2023-12-14T00:26:04;14.50;99.90
28177;DHT22;15461;41.652;9.378;2023-12-14T00:28:30;14.50;99.90
28177;DHT22;15461;41.652;9.378;2023-12-14T00:30:56;14.50;99.90
28177;DHT22;15461;41.652;9.378;2023-12-14T00:33:21;14.40;99.90
28177;DHT22;15461;41.652;9.378;2023-12-14T00:35:48;14.50;99.90
28177;DHT22;15461;41.652;9.378;2023-12-14T00:38:14;14.50;99.90
28177;DHT22;15461;41.652;9.378;2023-12-14T00:40:39;14.50;99.90
28177;DHT22;15461;41.652;9.378;2023-12-14T00:43:05;14.50;99.90
28177;DHT22;15461;41.652;9.378;2023-12-14T00:45:31;14.60;99.90
28177;DHT22;15461;41.652;9.378;2023-12-14T00:47:57;14.60;99.90
28177;DHT22;15461;41.652;9.378;2023-12-14T00:50:22;14.60;99.90
28177;DHT22;15461;41.652;9.378;2023-12-14T00:52:48;14.50;99.90
28177;DHT22;15461;41.652;9.378;2023-12-14T00:55:14;14.50;99.90
28177;DHT22;15461;41.652;9.378;2023-12-14T00:57:40;14.40;99.90
28177;DHT22;15461;41.652;9.378;2023-12-14T01:00:06;14.40;99.90
28177;DHT22;15461;41.652;9.378;2023-12-14T01:02:32;14.30;99.90
28177;DHT22;15461;41.652;9.378;2023-12-14T01:04:58;14.10;99.90
28177;DHT22;15461;41.652;9.378;2023-12-14T01:07:24;14.00;99.90
28177;DHT22;15461;41.652;9.378;2023-12-14T01:09:50;13.70;99.90
28177;DHT22;15461;41.652;9.378;2023-12-14T01:12:15;13.60;99.90
28177;DHT22;15461;41.652;9.378;2023-12-14T01:14:41;13.40;99.90
28177;DHT22;15461;41.652;9.378;2023-12-14T01:17:07;13.30;99.90
28177;DHT22;15461;41.652;9.378;2023-12-14T01:19:33;13.20;99.90
28177;DHT22;15461;41.652;9.378;2023-12-14T01:21:58;13.20;99.90
28177;DHT22;15461;41.652;9.378;2023-12-14T01:24:24;13.20;99.90
28177;DHT22;15461;41.652;9.378;2023-12-14T01:26:50;13.20;99.90
28177;DHT22;15461;41.652;9.378;2023-12-14T01:29:15;13.10;99.90
28177;DHT22;15461;41.652;9.378;2023-12-14T01:31:41;13.10;99.90
28177;DHT22;15461;41.652;9.378;2023-12-14T01:34:07;13.00;99.90
28177;DHT22;15461;41.652;9.378;2023-12-14T01:36:34;13.10;99.90
28177;DHT22;15461;41.652;9.378;2023-12-14T01:38:59;13.00;99.90
28177;DHT22;15461;41.652;9.378;2023-12-14T01:41:25;13.00;99.90
28177;DHT22;15461;41.652;9.378;2023-12-14T01:43:51;13.00;99.90
28177;DHT22;15461;41.652;9.378;2023-12-14T01:46:16;13.10;99.90
28177;DHT22;15461;41.652;9.378;2023-12-14T01:48:42;13.10;99.90
28177;DHT22;15461;41.652;9.378;2023-12-14T01:51:08;13.10;99.90
28177;DHT22;15461;41.652;9.378;2023-12-14T01:53:34;13.10;99.90
28177;DHT22;15461;41.652;9.378;2023-12-14T01:56:00;13.10;99.90
28177;DHT22;15461;41.652;9.378;2023-12-14T01:58:25;13.10;99.90
28177;DHT22;15461;41.652;9.378;2023-12-14T02:01:03;13.10;99.90
28177;DHT22;15461;41.652;9.378;2023-12-14T02:03:30;13.10;99.90
28177;DHT22;15461;41.652;9.378;2023-12-14T02:05:55;13.10;99.90
28177;DHT22;15461;41.652;9.378;2023-12-14T02:08:24;13.20;99.90
28177;DHT22;15461;41.652;9.378;2023-12-14T02:10:50;13.20;99.90
28177;DHT22;15461;41.652;9.378;2023-12-14T02:13:16;13.20;99.90
28177;DHT22;15461;41.652;9.378;2023-12-14T02:15:42;13.20;99.90
28177;DHT22;15461;41.652;9.378;2023-12-14T02:18:08;13.20;99.90
28177;DHT22;15461;41.652;9.378;2023-12-14T02:20:33;13.20;99.90
28177;DHT22;15461;41.652;9.378;2023-12-14T02:22:59;13.20;99.90
28177;DHT22;15461;41.652;9.378;2023-12-14T02:25:27;13.20;99.90
28177;DHT22;15461;41.652;9.378;2023-12-14T02:27:53;13.30;99.90
28177;DHT22;15461;41.652;9.378;2023-12-14T02:30:19;13.30;99.90
28177;DHT22;15461;41.652;9.378;2023-12-14T02:32:45;13.30;99.90
28177;DHT22;15461;41.652;9.378;2023-12-14T02:35:10;13.40;99.90
28177;DHT22;15461;41.652;9.378;2023-12-14T02:37:36;13.40;99.90
28177;DHT22;15461;41.652;9.378;2023-12-14T02:40:03;13.40;99.90
28177;DHT22;15461;41.652;9.378;2023-12-14T02:42:30;13.50;99.90
28177;DHT22;15461;41.652;9.378;2023-12-14T02:44:56;13.60;99.90
28177;DHT22;15461;41.652;9.378;2023-12-14T02:47:22;13.60;99.90
28177;DHT22;15461;41.652;9.378;2023-12-14T02:49:48;13.60;99.90
28177;DHT22;15461;41.652;9.378;2023-12-14T02:52:14;13.60;99.90
28177;DHT22;15461;41.652;9.378;2023-12-14T02:54:40;13.70;99.90
28177;DHT22;15461;41.652;9.378;2023-12-14T02:57:06;13.60;99.90
28177;DHT22;15461;41.652;9.378;2023-12-14T02:59:32;13.70;99.90
28177;DHT22;15461;41.652;9.378;2023-12-14T03:01:58;13.70;99.90
28177;DHT22;15461;41.652;9.378;2023-12-14T03:04:24;13.80;99.90
28177;DHT22;15461;41.652;9.378;2023-12-14T03:06:50;13.80;99.90
28177;DHT22;15461;41.652;9.378;2023-12-14T03:09:15;13.80;99.90
28177;DHT22;15461;41.652;9.378;2023-12-14T03:11:41;13.90;99.90
28177;DHT22;15461;41.652;9.378;2023-12-14T03:14:07;13.90;99.90
28177;DHT22;15461;41.652;9.378;2023-12-14T03:16:33;13.90;99.90
28177;DHT22;15461;41.652;9.378;2023-12-14T03:19:01;13.90;99.90
28177;DHT22;15461;41.652;9.378;2023-12-14T03:21:27;13.90;99.90
28177;DHT22;15461;41.652;9.378;2023-12-14T03:23:52;13.90;99.90
28177;DHT22;15461;41.652;9.378;2023-12-14T03:26:18;14.00;99.90
28177;DHT22;15461;41.652;9.378;2023-12-14T03:28:44;14.00;99.90
28177;DHT22;15461;41.652;9.378;2023-12-14T03:31:13;14.00;99.90
28177;DHT22;15461;41.652;9.378;2023-12-14T03:33:40;14.00;99.90
28177;DHT22;15461;41.652;9.378;2023-12-14T03:36:06;14.00;99.90
28177;DHT22;15461;41.652;9.378;2023-12-14T03:38:33;14.00;99.90
28177;DHT22;15461;41.652;9.378;2023-12-14T03:40:59;14.10;99.90
28177;DHT22;15461;41.652;9.378;2023-12-14T03:43:25;14.10;99.90
28177;DHT22;15461;41.652;9.378;2023-12-14T03:45:50;14.10;99.90
28177;DHT22;15461;41.652;9.378;2023-12-14T03:48:16;14.20;99.90
28177;DHT22;15461;41.652;9.378;2023-12-14T03:50:42;14.20;99.90
28177;DHT22;15461;41.652;9.378;2023-12-14T03:53:08;14.30;99.90
28177;DHT22;15461;41.652;9.378;2023-12-14T03:55:34;14.30;99.90
28177;DHT22;15461;41.652;9.378;2023-12-14T03:57:59;14.20;99.90
28177;DHT22;15461;41.652;9.378;2023-12-14T04:00:25;14.20;99.90
28177;DHT22;15461;41.652;9.378;2023-12-14T04:02:51;14.30;99.90
28177;DHT22;15461;41.652;9.378;2023-12-14T04:05:17;14.40;99.90
28177;DHT22;15461;41.652;9.378;2023-12-14T04:07:43;14.40;99.90
28177;DHT22;15461;41.652;9.378;2023-12-14T04:10:09;14.30;99.90
28177;DHT22;15461;41.652;9.378;2023-12-14T04:12:36;14.30;99.90
28177;DHT22;15461;41.652;9.378;2023-12-14T04:15:03;14.20;99.90
28177;DHT22;15461;41.652;9.378;2023-12-14T04:17:29;14.20;99.90
28177;DHT22;15461;41.652;9.378;2023-12-14T04:19:55;14.10;99.90
28177;DHT22;15461;41.652;9.378;2023-12-14T04:22:21;14.10;99.90
28177;DHT22;15461;41.652;9.378;2023-12-14T04:24:47;14.00;99.90
28177;DHT22;15461;41.652;9.378;2023-12-14T04:27:14;13.90;99.90
28177;DHT22;15461;41.652;9.378;2023-12-14T04:29:40;13.80;99.90
28177;DHT22;15461;41.652;9.378;2023-12-14T04:32:06;13.80;99.90
28177;DHT22;15461;41.652;9.378;2023-12-14T04:34:32;13.70;99.90
28177;DHT22;15461;41.652;9.378;2023-12-14T04:36:57;13.70;99.90
28177;DHT22;15461;41.652;9.378;2023-12-14T04:39:24;13.70;99.90
28177;DHT22;15461;41.652;9.378;2023-12-14T04:41:51;13.70;99.90
28177;DHT22;15461;41.652;9.378;2023-12-14T04:44:18;13.60;99.90
28177;DHT22;15461;41.652;9.378;2023-12-14T04:46:44;13.60;99.90
28177;DHT22;15461;41.652;9.378;2023-12-14T04:49:10;13.60;99.90
28177;DHT22;15461;41.652;9.378;2023-12-14T04:51:36;13.70;99.90
28177;DHT22;15461;41.652;9.378;2023-12-14T04:54:03;13.80;99.90
28177;DHT22;15461;41.652;9.378;2023-12-14T04:56:29;13.70;99.90
28177;DHT22;15461;41.652;9.378;2023-12-14T04:58:54;13.70;99.90
28177;DHT22;15461;41.652;9.378;2023-12-14T05:01:20;13.60;99.90
28177;DHT22;15461;41.652;9.378;2023-12-14T05:03:46;13.50;99.90
28177;DHT22;15461;41.652;9.378;2023-12-14T05:06:12;13.50;99.90
28177;DHT22;15461;41.652;9.378;2023-12-14T05:08:37;13.60;99.90
28177;DHT22;15461;41.652;9.378;2023-12-14T05:11:03;13.60;99.90
28177;DHT22;15461;41.652;9.378;2023-12-14T05:13:30;13.60;99.90
28177;DHT22;15461;41.652;9.378;2023-12-14T05:15:55;13.60;99.90
28177;DHT22;15461;41.652;9.378;2023-12-14T05:18:23;13.50;99.90
28177;DHT22;15461;41.652;9.378;2023-12-14T05:20:50;13.50;99.90
28177;DHT22;15461;41.652;9.378;2023-12-14T05:23:16;13.40;99.90
28177;DHT22;15461;41.652;9.378;2023-12-14T05:25:42;13.40;99.90
28177;DHT22;15461;41.652;9.378;2023-12-14T05:28:07;13.30;99.90
28177;DHT22;15461;41.652;9.378;2023-12-14T05:30:33;13.20;99.90
28177;DHT22;15461;41.652;9.378;2023-12-14T05:32:59;13.20;99.90
28177;DHT22;15461;41.652;9.378;2023-12-14T05:35:25;13.20;99.90
28177;DHT22;15461;41.652;9.378;2023-12-14T05:37:51;13.20;99.90
28177;DHT22;15461;41.652;9.378;2023-12-14T05:40:17;13.20;99.90
28177;DHT22;15461;41.652;9.378;2023-12-14T05:42:42;13.20;99.90
28177;DHT22;15461;41.652;9.378;2023-12-14T05:45:09;13.10;99.90
28177;DHT22;15461;41.652;9.378;2023-12-14T05:47:35;13.00;99.90
28177;DHT22;15461;41.652;9.378;2023-12-14T05:50:01;12.90;99.90
28177;DHT22;15461;41.652;9.378;2023-12-14T05:52:27;12.80;99.90
28177;DHT22;15461;41.652;9.378;2023-12-14T05:54:53;12.80;99.90
28177;DHT22;15461;41.652;9.378;2023-12-14T05:57:18;12.90;99.90
28177;DHT22;15461;41.652;9.378;2023-12-14T05:59:44;13.00;99.90
28177;DHT22;15461;41.652;9.378;2023-12-14T06:02:10;13.10;99.90
28177;DHT22;15461;41.652;9.378;2023-12-14T06:04:36;13.20;99.90
28177;DHT22;15461;41.652;9.378;2023-12-14T06:07:02;13.20;99.90
28177;DHT22;15461;41.652;9.378;2023-12-14T06:09:28;13.30;99.90
28177;DHT22;15461;41.652;9.378;2023-12-14T06:12:04;13.40;99.90
28177;DHT22;15461;41.652;9.378;2023-12-14T06:14:30;13.40;99.90
28177;DHT22;15461;41.652;9.378;2023-12-14T06:16:57;13.50;99.90
28177;DHT22;15461;41.652;9.378;2023-12-14T06:19:23;13.40;99.90
28177;DHT22;15461;41.652;9.378;2023-12-14T06:21:49;13.40;99.90
28177;DHT22;15461;41.652;9.378;2023-12-14T06:24:15;13.40;99.90
28177;DHT22;15461;41.652;9.378;2023-12-14T06:26:44;13.30;99.90
28177;DHT22;15461;41.652;9.378;2023-12-14T06:29:11;13.20;99.90
28177;DHT22;15461;41.652;9.378;2023-12-14T06:31:38;13.30;99.90
28177;DHT22;15461;41.652;9.378;2023-12-14T06:34:04;13.30;99.90
28177;DHT22;15461;41.652;9.378;2023-12-14T06:36:30;13.30;99.90
28177;DHT22;15461;41.652;9.378;2023-12-14T06:39:00;13.30;99.90
28177;DHT22;15461;41.652;9.378;2023-12-14T06:41:28;13.40;99.90
28177;DHT22;15461;41.652;9.378;2023-12-14T06:43:54;13.30;99.90
28177;DHT22;15461;41.652;9.378;2023-12-14T06:46:21;13.30;99.90
28177;DHT22;15461;41.652;9.378;2023-12-14T06:48:47;13.20;99.90
28177;DHT22;15461;41.652;9.378;2023-12-14T06:51:13;13.20;99.90
28177;DHT22;15461;41.652;9.378;2023-12-14T06:53:43;13.10;99.90
28177;DHT22;15461;41.652;9.378;2023-12-14T06:56:09;13.20;99.90
28177;DHT22;15461;41.652;9.378;2023-12-14T06:58:46;13.10;99.90
28177;DHT22;15461;41.652;9.378;2023-12-14T07:01:15;13.10;99.90
28177;DHT22;15461;41.652;9.378;2023-12-14T07:03:42;13.20;99.90
28177;DHT22;15461;41.652;9.378;2023-12-14T07:06:16;13.10;99.90
28177;DHT22;15461;41.652;9.378;2023-12-14T07:08:43;13.10;99.90
28177;DHT22;15461;41.652;9.378;2023-12-14T07:11:09;13.10;99.90
28177;DHT22;15461;41.652;9.378;2023-12-14T07:13:35;13.10;99.90
28177;DHT22;15461;41.652;9.378;2023-12-14T07:16:04;13.20;99.90
28177;DHT22;15461;41.652;9.378;2023-12-14T07:18:30;13.20;99.90
28177;DHT22;15461;41.652;9.378;2023-12-14T07:20:56;13.20;99.90
28177;DHT22;15461;41.652;9.378;2023-12-14T07:23:22;13.30;99.90
28177;DHT22;15461;41.652;9.378;2023-12-14T07:25:47;13.30;99.90
28177;DHT22;15461;41.652;9.378;2023-12-14T07:28:13;13.30;99.90
28177;DHT22;15461;41.652;9.378;2023-12-14T07:30:39;13.40;99.90
28177;DHT22;15461;41.652;9.378;2023-12-14T07:33:05;13.50;99.90
28177;DHT22;15461;41.652;9.378;2023-12-14T07:35:30;13.60;99.90
28177;DHT22;15461;41.652;9.378;2023-12-14T07:37:56;13.60;99.90
28177;DHT22;15461;41.652;9.378;2023-12-14T07:40:22;13.60;99.90
28177;DHT22;15461;41.652;9.378;2023-12-14T07:42:47;13.60;99.90
28177;DHT22;15461;41.652;9.378;2023-12-14T07:45:14;13.60;99.90
28177;DHT22;15461;41.652;9.378;2023-12-14T07:47:40;13.70;99.90
28177;DHT22;15461;41.652;9.378;2023-12-14T07:50:08;13.80;99.90
28177;DHT22;15461;41.652;9.378;2023-12-14T07:52:34;13.90;99.90
28177;DHT22;15461;41.652;9.378;2023-12-14T07:55:00;14.00;99.90
28177;DHT22;15461;41.652;9.378;2023-12-14T07:57:26;14.10;99.90
28177;DHT22;15461;41.652;9.378;2023-12-14T07:59:52;14.20;99.90
28177;DHT22;15461;41.652;9.378;2023-12-14T08:02:17;14.30;99.90
28177;DHT22;15461;41.652;9.378;2023-12-14T08:04:43;14.50;99.90
28177;DHT22;15461;41.652;9.378;2023-12-14T08:07:09;14.50;99.90
28177;DHT22;15461;41.652;9.378;2023-12-14T08:09:35;14.70;99.90
28177;DHT22;15461;41.652;9.378;2023-12-14T08:12:00;14.80;99.90
28177;DHT22;15461;41.652;9.378;2023-12-14T08:14:26;14.90;99.90
28177;DHT22;15461;41.652;9.378;2023-12-14T08:16:52;14.80;99.90
28177;DHT22;15461;41.652;9.378;2023-12-14T08:19:18;14.80;99.90
28177;DHT22;15461;41.652;9.378;2023-12-14T08:21:43;14.80;99.90
28177;DHT22;15461;41.652;9.378;2023-12-14T08:24:09;14.70;99.90
28177;DHT22;15461;41.652;9.378;2023-12-14T08:26:35;14.60;99.90
28177;DHT22;15461;41.652;9.378;2023-12-14T08:29:01;14.50;99.90
28177;DHT22;15461;41.652;9.378;2023-12-14T08:31:27;14.50;99.90
28177;DHT22;15461;41.652;9.378;2023-12-14T08:33:52;14.50;99.90
28177;DHT22;15461;41.652;9.378;2023-12-14T08:36:18;14.50;99.90
28177;DHT22;15461;41.652;9.378;2023-12-14T08:38:44;14.60;99.90
28177;DHT22;15461;41.652;9.378;2023-12-14T08:41:18;14.60;99.90
28177;DHT22;15461;41.652;9.378;2023-12-14T08:43:44;14.50;99.90
28177;DHT22;15461;41.652;9.378;2023-12-14T08:46:10;14.50;99.90
28177;DHT22;15461;41.652;9.378;2023-12-14T08:48:36;14.60;99.90
28177;DHT22;15461;41.652;9.378;2023-12-14T08:51:03;14.60;99.90
28177;DHT22;15461;41.652;9.378;2023-12-14T08:53:29;14.60;99.90
28177;DHT22;15461;41.652;9.378;2023-12-14T08:55:55;14.70;99.90
28177;DHT22;15461;41.652;9.378;2023-12-14T08:58:21;14.80;99.90
28177;DHT22;15461;41.652;9.378;2023-12-14T09:00:47;14.90;99.90
28177;DHT22;15461;41.652;9.378;2023-12-14T09:03:19;15.00;99.90
28177;DHT22;15461;41.652;9.378;2023-12-14T09:05:45;15.10;99.90
28177;DHT22;15461;41.652;9.378;2023-12-14T09:08:11;15.30;99.90
28177;DHT22;15461;41.652;9.378;2023-12-14T09:10:40;15.50;99.90
28177;DHT22;15461;41.652;9.378;2023-12-14T09:13:06;15.60;99.90
28177;DHT22;15461;41.652;9.378;2023-12-14T09:15:32;15.70;99.90
28177;DHT22;15461;41.652;9.378;2023-12-14T09:17:58;15.80;99.90
28177;DHT22;15461;41.652;9.378;2023-12-14T09:20:24;15.80;99.90
28177;DHT22;15461;41.652;9.378;2023-12-14T09:22:50;15.80;99.90
28177;DHT22;15461;41.652;9.378;2023-12-14T09:25:16;15.80;99.90
28177;DHT22;15461;41.652;9.378;2023-12-14T09:27:42;15.90;99.90
28177;DHT22;15461;41.652;9.378;2023-12-14T09:30:08;15.80;99.90
28177;DHT22;15461;41.652;9.378;2023-12-14T09:32:34;15.90;99.90
28177;DHT22;15461;41.652;9.378;2023-12-14T09:35:00;15.90;99.90
28177;DHT22;15461;41.652;9.378;2023-12-14T09:37:26;16.00;99.90
28177;DHT22;15461;41.652;9.378;2023-12-14T09:39:52;16.10;99.90
28177;DHT22;15461;41.652;9.378;2023-12-14T09:42:19;16.10;99.90
28177;DHT22;15461;41.652;9.378;2023-12-14T09:44:47;16.10;99.90
28177;DHT22;15461;41.652;9.378;2023-12-14T09:47:13;16.10;99.90
28177;DHT22;15461;41.652;9.378;2023-12-14T09:49:41;16.20;99.90
28177;DHT22;15461;41.652;9.378;2023-12-14T09:52:09;16.30;99.90
28177;DHT22;15461;41.652;9.378;2023-12-14T09:54:35;16.30;99.90
28177;DHT22;15461;41.652;9.378;2023-12-14T09:57:01;16.30;99.90
28177;DHT22;15461;41.652;9.378;2023-12-14T09:59:27;16.30;99.90
28177;DHT22;15461;41.652;9.378;2023-12-14T10:01:52;16.20;99.90
28177;DHT22;15461;41.652;9.378;2023-12-14T10:04:19;16.10;99.90
28177;DHT22;15461;41.652;9.378;2023-12-14T10:06:47;16.10;99.90
28177;DHT22;15461;41.652;9.378;2023-12-14T10:09:13;16.00;99.90
28177;DHT22;15461;41.652;9.378;2023-12-14T10:11:42;16.00;99.90
28177;DHT22;15461;41.652;9.378;2023-12-14T10:14:18;16.00;99.90
28177;DHT22;15461;41.652;9.378;2023-12-14T10:16:47;16.00;99.90
28177;DHT22;15461;41.652;9.378;2023-12-14T10:19:13;16.00;99.90
28177;DHT22;15461;41.652;9.378;2023-12-14T10:21:39;16.00;99.90
28177;DHT22;15461;41.652;9.378;2023-12-14T10:24:05;15.90;99.90
28177;DHT22;15461;41.652;9.378;2023-12-14T10:26:31;15.90;99.90
28177;DHT22;15461;41.652;9.378;2023-12-14T10:28:57;15.80;99.90
28177;DHT22;15461;41.652;9.378;2023-12-14T10:31:24;15.70;99.90
28177;DHT22;15461;41.652;9.378;2023-12-14T10:33:51;15.60;99.90
28177;DHT22;15461;41.652;9.378;2023-12-14T10:36:22;15.60;99.90
28177;DHT22;15461;41.652;9.378;2023-12-14T10:38:52;15.60;99.90
28177;DHT22;15461;41.652;9.378;2023-12-14T10:41:20;15.60;99.90
28177;DHT22;15461;41.652;9.378;2023-12-14T10:43:47;15.50;99.90
28177;DHT22;15461;41.652;9.378;2023-12-14T10:46:14;15.50;99.90
28177;DHT22;15461;41.652;9.378;2023-12-14T10:48:40;15.40;99.90
28177;DHT22;15461;41.652;9.378;2023-12-14T10:51:11;15.40;99.90
28177;DHT22;15461;41.652;9.378;2023-12-14T10:53:38;15.20;99.90
28177;DHT22;15461;41.652;9.378;2023-12-14T10:56:06;15.10;99.90
28177;DHT22;15461;41.652;9.378;2023-12-14T10:58:45;15.20;99.90
28177;DHT22;15461;41.652;9.378;2023-12-14T11:01:15;15.20;99.90
28177;DHT22;15461;41.652;9.378;2023-12-14T11:03:43;15.30;99.90
28177;DHT22;15461;41.652;9.378;2023-12-14T11:08:56;15.40;99.90
28177;DHT22;15461;41.652;9.378;2023-12-14T11:11:22;15.30;99.90
28177;DHT22;15461;41.652;9.378;2023-12-14T11:13:52;15.40;99.90
28177;DHT22;15461;41.652;9.378;2023-12-14T11:16:26;15.40;99.90
28177;DHT22;15461;41.652;9.378;2023-12-14T11:24:25;15.60;99.90
28177;DHT22;15461;41.652;9.378;2023-12-14T11:26:53;15.70;99.90
28177;DHT22;15461;41.652;9.378;2023-12-14T11:29:19;15.60;99.90
28177;DHT22;15461;41.652;9.378;2023-12-14T11:31:46;15.50;99.90
28177;DHT22;15461;41.652;9.378;2023-12-14T11:34:14;15.40;99.90
28177;DHT22;15461;41.652;9.378;2023-12-14T11:36:40;15.40;99.90
28177;DHT22;15461;41.652;9.378;2023-12-14T11:39:10;15.40;99.90
28177;DHT22;15461;41.652;9.378;2023-12-14T11:41:36;15.50;99.90
28177;DHT22;15461;41.652;9.378;2023-12-14T11:44:04;15.50;99.90
28177;DHT22;15461;41.652;9.378;2023-12-14T11:46:31;15.60;99.90
28177;DHT22;15461;41.652;9.378;2023-12-14T11:49:00;15.60;99.90
28177;DHT22;15461;41.652;9.378;2023-12-14T11:51:28;15.70;99.90
28177;DHT22;15461;41.652;9.378;2023-12-14T11:53:56;15.80;99.90
28177;DHT22;15461;41.652;9.378;2023-12-14T11:56:25;15.80;99.90
28177;DHT22;15461;41.652;9.378;2023-12-14T11:58:51;15.90;99.90
28177;DHT22;15461;41.652;9.378;2023-12-14T12:01:20;15.90;99.90
28177;DHT22;15461;41.652;9.378;2023-12-14T12:03:51;15.90;99.90
28177;DHT22;15461;41.652;9.378;2023-12-14T12:06:25;15.90;99.90
28177;DHT22;15461;41.652;9.378;2023-12-14T12:08:52;16.00;99.90
28177;DHT22;15461;41.652;9.378;2023-12-14T12:11:18;16.00;99.90
28177;DHT22;15461;41.652;9.378;2023-12-14T12:13:53;16.10;99.90
28177;DHT22;15461;41.652;9.378;2023-12-14T12:16:19;16.10;99.90
28177;DHT22;15461;41.652;9.378;2023-12-14T12:18:45;16.20;99.90
28177;DHT22;15461;41.652;9.378;2023-12-14T12:21:11;16.20;99.90
28177;DHT22;15461;41.652;9.378;2023-12-14T12:23:37;16.10;99.90
28177;DHT22;15461;41.652;9.378;2023-12-14T12:26:04;16.10;99.90
28177;DHT22;15461;41.652;9.378;2023-12-14T12:28:31;16.00;99.90
28177;DHT22;15461;41.652;9.378;2023-12-14T12:30:57;16.00;99.90
28177;DHT22;15461;41.652;9.378;2023-12-14T12:33:23;15.90;99.90
28177;DHT22;15461;41.652;9.378;2023-12-14T12:35:49;15.90;99.90
28177;DHT22;15461;41.652;9.378;2023-12-14T12:38:15;15.90;99.90
28177;DHT22;15461;41.652;9.378;2023-12-14T12:40:47;15.70;99.90
28177;DHT22;15461;41.652;9.378;2023-12-14T12:43:15;15.70;99.90
28177;DHT22;15461;41.652;9.378;2023-12-14T12:45:41;15.60;99.90
28177;DHT22;15461;41.652;9.378;2023-12-14T12:48:07;15.70;99.90
28177;DHT22;15461;41.652;9.378;2023-12-14T12:50:33;15.80;99.90
28177;DHT22;15461;41.652;9.378;2023-12-14T12:52:59;15.90;99.90
28177;DHT22;15461;41.652;9.378;2023-12-14T12:55:25;15.90;99.90
28177;DHT22;15461;41.652;9.378;2023-12-14T12:57:50;16.00;99.90
28177;DHT22;15461;41.652;9.378;2023-12-14T13:00:16;16.00;99.90
28177;DHT22;15461;41.652;9.378;2023-12-14T13:02:44;16.10;99.90
28177;DHT22;15461;41.652;9.378;2023-12-14T13:05:13;16.10;99.90
28177;DHT22;15461;41.652;9.378;2023-12-14T13:07:39;16.10;99.90
28177;DHT22;15461;41.652;9.378;2023-12-14T13:10:05;16.20;99.90
28177;DHT22;15461;41.652;9.378;2023-12-14T13:12:32;16.20;99.90
28177;DHT22;15461;41.652;9.378;2023-12-14T13:14:59;16.30;99.90
28177;DHT22;15461;41.652;9.378;2023-12-14T13:17:24;16.30;99.90
28177;DHT22;15461;41.652;9.378;2023-12-14T13:19:51;16.30;99.90
28177;DHT22;15461;41.652;9.378;2023-12-14T13:22:17;16.30;99.90
28177;DHT22;15461;41.652;9.378;2023-12-14T13:24:44;16.30;99.90
28177;DHT22;15461;41.652;9.378;2023-12-14T13:27:10;16.30;99.90
28177;DHT22;15461;41.652;9.378;2023-12-14T13:29:36;16.30;99.90
28177;DHT22;15461;41.652;9.378;2023-12-14T13:32:02;16.30;99.90
28177;DHT22;15461;41.652;9.378;2023-12-14T13:34:28;16.30;99.90
28177;DHT22;15461;41.652;9.378;2023-12-14T13:36:56;16.20;99.90
28177;DHT22;15461;41.652;9.378;2023-12-14T13:39:26;16.20;99.90
28177;DHT22;15461;41.652;9.378;2023-12-14T13:41:52;16.20;99.90
28177;DHT22;15461;41.652;9.378;2023-12-14T13:44:18;16.20;99.90
28177;DHT22;15461;41.652;9.378;2023-12-14T13:46:44;16.20;99.90
28177;DHT22;15461;41.652;9.378;2023-12-14T13:49:09;16.30;99.90
28177;DHT22;15461;41.652;9.378;2023-12-14T13:51:35;16.20;99.90
28177;DHT22;15461;41.652;9.378;2023-12-14T13:54:01;16.20;99.90
28177;DHT22;15461;41.652;9.378;2023-12-14T13:56:27;16.20;99.90
28177;DHT22;15461;41.652;9.378;2023-12-14T13:58:53;16.20;99.90
28177;DHT22;15461;41.652;9.378;2023-12-14T14:01:19;16.20;99.90
28177;DHT22;15461;41.652;9.378;2023-12-14T14:03:44;16.20;99.90
28177;DHT22;15461;41.652;9.378;2023-12-14T14:06:13;16.10;99.90
28177;DHT22;15461;41.652;9.378;2023-12-14T14:08:38;15.90;99.90
28177;DHT22;15461;41.652;9.378;2023-12-14T14:11:04;16.00;99.90
28177;DHT22;15461;41.652;9.378;2023-12-14T14:13:31;16.00;99.90
28177;DHT22;15461;41.652;9.378;2023-12-14T14:15:57;16.00;99.90
28177;DHT22;15461;41.652;9.378;2023-12-14T14:18:23;16.10;99.90
28177;DHT22;15461;41.652;9.378;2023-12-14T14:20:49;16.00;99.90
28177;DHT22;15461;41.652;9.378;2023-12-14T14:23:15;16.10;99.90
28177;DHT22;15461;41.652;9.378;2023-12-14T14:25:41;16.10;99.90
28177;DHT22;15461;41.652;9.378;2023-12-14T14:28:07;15.80;99.90
28177;DHT22;15461;41.652;9.378;2023-12-14T14:30:33;15.40;99.90
28177;DHT22;15461;41.652;9.378;2023-12-14T14:32:59;15.00;99.90
28177;DHT22;15461;41.652;9.378;2023-12-14T14:35:25;14.70;99.90
28177;DHT22;15461;41.652;9.378;2023-12-14T14:37:50;14.50;99.90
28177;DHT22;15461;41.652;9.378;2023-12-14T14:40:16;14.30;99.90
28177;DHT22;15461;41.652;9.378;2023-12-14T14:42:43;14.20;99.90
28177;DHT22;15461;41.652;9.378;2023-12-14T14:45:12;14.10;99.90
28177;DHT22;15461;41.652;9.378;2023-12-14T14:47:40;14.00;99.90
28177;DHT22;15461;41.652;9.378;2023-12-14T14:50:07;14.00;99.90
28177;DHT22;15461;41.652;9.378;2023-12-14T14:52:34;13.90;99.90
28177;DHT22;15461;41.652;9.378;2023-12-14T14:55:00;13.90;99.90
28177;DHT22;15461;41.652;9.378;2023-12-14T14:57:26;13.90;99.90
28177;DHT22;15461;41.652;9.378;2023-12-14T14:59:53;13.90;99.90
28177;DHT22;15461;41.652;9.378;2023-12-14T15:02:19;13.90;99.90
28177;DHT22;15461;41.652;9.378;2023-12-14T15:04:45;13.90;99.90
28177;DHT22;15461;41.652;9.378;2023-12-14T15:07:11;14.00;99.90
28177;DHT22;15461;41.652;9.378;2023-12-14T15:09:36;14.00;99.90
28177;DHT22;15461;41.652;9.378;2023-12-14T15:12:02;14.00;99.90
28177;DHT22;15461;41.652;9.378;2023-12-14T15:14:28;14.10;99.90
28177;DHT22;15461;41.652;9.378;2023-12-14T15:16:54;14.10;99.90
28177;DHT22;15461;41.652;9.378;2023-12-14T15:19:20;14.20;99.90
28177;DHT22;15461;41.652;9.378;2023-12-14T15:21:46;14.20;99.90
28177;DHT22;15461;41.652;9.378;2023-12-14T15:24:11;14.20;99.90
28177;DHT22;15461;41.652;9.378;2023-12-14T15:26:37;14.20;99.90
28177;DHT22;15461;41.652;9.378;2023-12-14T15:29:03;14.20;99.90
28177;DHT22;15461;41.652;9.378;2023-12-14T15:31:29;14.10;99.90
28177;DHT22;15461;41.652;9.378;2023-12-14T15:33:55;14.10;99.90